Thunderstorms From: 15-12-2017 06:00 Until: 16-12-2017 06:00 warning for: Thunderstorms Level: Yellow info button

Although rather usual in this region, locally or potentially dangerous phenomena are expected. (such as local winds, summer thunderstorms, rising streams or high waves) Be aware and pay attention to the latest weather updates, especially if you carry out activities exposed to weather or close to a stream or shoreline. 


Meteo18 Weather Cam more information Meteo18 Weather Cam


warning for Thunderstorms more information blitzortung!


Rain radar more information rain snow radar


Visit our other weather sites:

Template documentation
and downloads

And another site



Weather Underground History page Text

Daily Summary for December 2, 2017 Units:  Both    English   Metric
« Previous Day
Next Day »
Daily Weekly Monthly Yearly Custom
  High: Low: Average:
Temperature: 35.6 °F /  2.0 °C 30.4 °F /  -0.9 °C 32.5 °F /  0.3 °C
Dew Point: 30.9 °F /  -0.6 °C 28.4 °F /  -2.0 °C 29.8 °F /  -1.2 °C
Humidity: 93 % 83 % 90 %
Wind Speed: 22 mph /  35.4 km/h - 5.7 mph /  9.2 km/h
Wind Gust: 23 mph /  37.0 km/h - -
Wind:- - SSW
Pressure: 30.4 in /  1028.0 hPa 30.2 in /  1020.9 hPa -
Precipitation: 0.01 in /  0.3 mm    
Historical Graphs
 
 
Tabular Data for December 2, 2017
Time Temperature Dew Point Pressure Wind Wind Speed Wind Gust Humidity Rainfall Rate (Hourly)
00:02 32.7 °F /  0.4 °C 30.7 °F /  -0.7 °C 30.2 in /  1020.9 hPa NW 3 mph /  4.8 km/h 12 mph /  19.3 km/h 92 % 0 in /  0.0 mm
00:12 32.7 °F /  0.4 °C 30.7 °F /  -0.7 °C 30.2 in /  1021.2 hPa NNW 5 mph /  8.0 km/h 11 mph /  17.7 km/h 92 % 0 in /  0.0 mm
00:32 32.7 °F /  0.4 °C 30.7 °F /  -0.7 °C 30.2 in /  1021.2 hPa North 6 mph /  9.7 km/h 13 mph /  20.9 km/h 92 % 0 in /  0.0 mm
00:42 32.4 °F /  0.2 °C 30.6 °F /  -0.8 °C 30.2 in /  1021.2 hPa North 5 mph /  8.0 km/h 10 mph /  16.1 km/h 93 % 0 in /  0.0 mm
00:47 32.4 °F /  0.2 °C 30.6 °F /  -0.8 °C 30.2 in /  1021.2 hPa North 6 mph /  9.7 km/h 11 mph /  17.7 km/h 93 % 0 in /  0.0 mm
00:52 32.4 °F /  0.2 °C 30.6 °F /  -0.8 °C 30.2 in /  1021.2 hPa NNW 6 mph /  9.7 km/h 11 mph /  17.7 km/h 93 % 0 in /  0.0 mm
01:02 32.5 °F /  0.3 °C 30.7 °F /  -0.7 °C 30.2 in /  1021.2 hPa NNE 4 mph /  6.4 km/h 13 mph /  20.9 km/h 93 % 0 in /  0.0 mm
01:07 32.5 °F /  0.3 °C 30.7 °F /  -0.7 °C 30.2 in /  1021.2 hPa North 9 mph /  14.5 km/h 13 mph /  20.9 km/h 93 % 0 in /  0.0 mm
01:12 32.4 °F /  0.2 °C 30.4 °F /  -0.9 °C 30.2 in /  1021.2 hPa NNE 5 mph /  8.0 km/h 13 mph /  20.9 km/h 92 % 0 in /  0.0 mm
01:22 32.4 °F /  0.2 °C 30.4 °F /  -0.9 °C 30.2 in /  1021.2 hPa NNE 8 mph /  12.9 km/h 15 mph /  24.1 km/h 92 % 0 in /  0.0 mm
01:27 32.4 °F /  0.2 °C 30.4 °F /  -0.9 °C 30.2 in /  1021.2 hPa North 5 mph /  8.0 km/h 15 mph /  24.1 km/h 92 % 0 in /  0.0 mm
01:32 32.4 °F /  0.2 °C 30.4 °F /  -0.9 °C 30.2 in /  1021.6 hPa ENE 1 mph /  1.6 km/h 15 mph /  24.1 km/h 92 % 0 in /  0.0 mm
01:37 32.4 °F /  0.2 °C 30.4 °F /  -0.9 °C 30.2 in /  1021.2 hPa North 2 mph /  3.2 km/h 12 mph /  19.3 km/h 92 % 0 in /  0.0 mm
01:42 32.2 °F /  0.1 °C 30.2 °F /  -1.0 °C 30.2 in /  1021.6 hPa North 7 mph /  11.3 km/h 11 mph /  17.7 km/h 92 % 0 in /  0.0 mm
01:47 32.2 °F /  0.1 °C 30.2 °F /  -1.0 °C 30.2 in /  1021.6 hPa North 5 mph /  8.0 km/h 11 mph /  17.7 km/h 92 % 0 in /  0.0 mm
01:57 32.4 °F /  0.2 °C 30.6 °F /  -0.8 °C 30.2 in /  1021.6 hPa NNE 5 mph /  8.0 km/h 11 mph /  17.7 km/h 93 % 0 in /  0.0 mm
02:02 32.4 °F /  0.2 °C 30.6 °F /  -0.8 °C 30.2 in /  1021.6 hPa North 2 mph /  3.2 km/h 11 mph /  17.7 km/h 93 % 0 in /  0.0 mm
02:12 32.5 °F /  0.3 °C 30.7 °F /  -0.7 °C 30.2 in /  1021.6 hPa NNE 5 mph /  8.0 km/h 10 mph /  16.1 km/h 93 % 0 in /  0.0 mm
02:22 32.5 °F /  0.3 °C 30.7 °F /  -0.7 °C 30.2 in /  1021.6 hPa North 1 mph /  1.6 km/h 10 mph /  16.1 km/h 93 % 0 in /  0.0 mm
02:27 32.5 °F /  0.3 °C 30.7 °F /  -0.7 °C 30.2 in /  1021.6 hPa NNW 5 mph /  8.0 km/h 10 mph /  16.1 km/h 93 % 0 in /  0.0 mm
02:32 32.5 °F /  0.3 °C 30.7 °F /  -0.7 °C 30.2 in /  1021.6 hPa NNE 5 mph /  8.0 km/h 10 mph /  16.1 km/h 93 % 0 in /  0.0 mm
02:37 32.5 °F /  0.3 °C 30.7 °F /  -0.7 °C 30.2 in /  1021.9 hPa NNE 5 mph /  8.0 km/h 10 mph /  16.1 km/h 93 % 0 in /  0.0 mm
02:42 32.5 °F /  0.3 °C 30.7 °F /  -0.7 °C 30.2 in /  1021.9 hPa North 6 mph /  9.7 km/h 9 mph /  14.5 km/h 93 % 0 in /  0.0 mm
02:47 32.5 °F /  0.3 °C 30.7 °F /  -0.7 °C 30.2 in /  1021.9 hPa NW 1 mph /  1.6 km/h 9 mph /  14.5 km/h 93 % 0 in /  0.0 mm
02:52 32.5 °F /  0.3 °C 30.7 °F /  -0.7 °C 30.2 in /  1021.9 hPa NNE 3 mph /  4.8 km/h 9 mph /  14.5 km/h 93 % 0 in /  0.0 mm
02:57 32.5 °F /  0.3 °C 30.7 °F /  -0.7 °C 30.2 in /  1021.9 hPa NW 3 mph /  4.8 km/h 8 mph /  12.9 km/h 93 % 0 in /  0.0 mm
03:02 32.5 °F /  0.3 °C 30.7 °F /  -0.7 °C 30.2 in /  1021.9 hPa NNW 4 mph /  6.4 km/h 9 mph /  14.5 km/h 93 % 0 in /  0.0 mm
03:17 32.7 °F /  0.4 °C 30.9 °F /  -0.6 °C 30.2 in /  1021.9 hPa NNE 2 mph /  3.2 km/h 11 mph /  17.7 km/h 93 % 0 in /  0.0 mm
03:22 32.7 °F /  0.4 °C 30.9 °F /  -0.6 °C 30.2 in /  1021.9 hPa ENE 5 mph /  8.0 km/h 11 mph /  17.7 km/h 93 % 0 in /  0.0 mm
03:27 32.7 °F /  0.4 °C 30.9 °F /  -0.6 °C 30.2 in /  1021.9 hPa ENE 9 mph /  14.5 km/h 11 mph /  17.7 km/h 93 % 0 in /  0.0 mm
03:32 32.7 °F /  0.4 °C 30.9 °F /  -0.6 °C 30.2 in /  1021.9 hPa North 6 mph /  9.7 km/h 12 mph /  19.3 km/h 93 % 0 in /  0.0 mm
03:37 32.7 °F /  0.4 °C 30.9 °F /  -0.6 °C 30.2 in /  1021.9 hPa NNW 4 mph /  6.4 km/h 12 mph /  19.3 km/h 93 % 0 in /  0.0 mm
03:42 32.7 °F /  0.4 °C 30.9 °F /  -0.6 °C 30.2 in /  1021.9 hPa NNE 8 mph /  12.9 km/h 12 mph /  19.3 km/h 93 % 0 in /  0.0 mm
03:52 32.7 °F /  0.4 °C 30.9 °F /  -0.6 °C 30.2 in /  1021.9 hPa NNW 7 mph /  11.3 km/h 13 mph /  20.9 km/h 93 % 0 in /  0.0 mm
03:57 32.7 °F /  0.4 °C 30.9 °F /  -0.6 °C 30.2 in /  1021.9 hPa NNW 8 mph /  12.9 km/h 13 mph /  20.9 km/h 93 % 0 in /  0.0 mm
04:02 32.7 °F /  0.4 °C 30.9 °F /  -0.6 °C 30.2 in /  1021.9 hPa NE 5 mph /  8.0 km/h 13 mph /  20.9 km/h 93 % 0 in /  0.0 mm
04:07 32.7 °F /  0.4 °C 30.9 °F /  -0.6 °C 30.2 in /  1021.9 hPa NNE 9 mph /  14.5 km/h 14 mph /  22.5 km/h 93 % 0 in /  0.0 mm
04:22 32.9 °F /  0.5 °C 30.9 °F /  -0.6 °C 30.2 in /  1021.9 hPa NNE 6 mph /  9.7 km/h 16 mph /  25.7 km/h 92 % 0 in /  0.0 mm
04:32 32.9 °F /  0.5 °C 30.9 °F /  -0.6 °C 30.2 in /  1021.9 hPa NNE 4 mph /  6.4 km/h 13 mph /  20.9 km/h 92 % 0 in /  0.0 mm
04:42 32.9 °F /  0.5 °C 30.9 °F /  -0.6 °C 30.2 in /  1022.2 hPa NNE 6 mph /  9.7 km/h 13 mph /  20.9 km/h 92 % 0 in /  0.0 mm
04:47 32.7 °F /  0.4 °C 30.9 °F /  -0.6 °C 30.2 in /  1021.9 hPa NW 3 mph /  4.8 km/h 9 mph /  14.5 km/h 93 % 0 in /  0.0 mm
04:57 32.7 °F /  0.4 °C 30.7 °F /  -0.7 °C 30.2 in /  1022.2 hPa NW 4 mph /  6.4 km/h 12 mph /  19.3 km/h 92 % 0 in /  0.0 mm
05:02 32.7 °F /  0.4 °C 30.7 °F /  -0.7 °C 30.2 in /  1022.2 hPa North 6 mph /  9.7 km/h 12 mph /  19.3 km/h 92 % 0 in /  0.0 mm
05:12 32.7 °F /  0.4 °C 30.7 °F /  -0.7 °C 30.2 in /  1022.2 hPa North 6 mph /  9.7 km/h 11 mph /  17.7 km/h 92 % 0 in /  0.0 mm
05:17 32.7 °F /  0.4 °C 30.7 °F /  -0.7 °C 30.2 in /  1022.2 hPa Calm   10 mph /  16.1 km/h 92 % 0 in /  0.0 mm
05:22 32.7 °F /  0.4 °C 30.7 °F /  -0.7 °C 30.2 in /  1022.6 hPa North 1 mph /  1.6 km/h 8 mph /  12.9 km/h 92 % 0 in /  0.0 mm
05:32 32.7 °F /  0.4 °C 30.7 °F /  -0.7 °C 30.2 in /  1022.6 hPa NE 3 mph /  4.8 km/h 7 mph /  11.3 km/h 92 % 0 in /  0.0 mm
05:52 32.7 °F /  0.4 °C 30.2 °F /  -1.0 °C 30.2 in /  1022.6 hPa NNE 7 mph /  11.3 km/h 13 mph /  20.9 km/h 90 % 0 in /  0.0 mm
05:57 32.7 °F /  0.4 °C 30.2 °F /  -1.0 °C 30.2 in /  1022.6 hPa NNE 4 mph /  6.4 km/h 13 mph /  20.9 km/h 90 % 0 in /  0.0 mm
06:02 32.7 °F /  0.4 °C 30.2 °F /  -1.0 °C 30.2 in /  1022.6 hPa North 5 mph /  8.0 km/h 12 mph /  19.3 km/h 90 % 0 in /  0.0 mm
06:07 32.7 °F /  0.4 °C 30.2 °F /  -1.0 °C 30.2 in /  1022.6 hPa NNE 2 mph /  3.2 km/h 9 mph /  14.5 km/h 90 % 0 in /  0.0 mm
06:12 32.7 °F /  0.4 °C 30.2 °F /  -1.0 °C 30.2 in /  1022.6 hPa Calm   9 mph /  14.5 km/h 90 % 0 in /  0.0 mm
06:17 32.7 °F /  0.4 °C 30.4 °F /  -0.9 °C 30.2 in /  1022.6 hPa Calm   9 mph /  14.5 km/h 91 % 0 in /  0.0 mm
06:27 32.7 °F /  0.4 °C 30.4 °F /  -0.9 °C 30.2 in /  1022.9 hPa North 4 mph /  6.4 km/h 7 mph /  11.3 km/h 91 % 0 in /  0.0 mm
06:32 32.7 °F /  0.4 °C 30.7 °F /  -0.7 °C 30.2 in /  1022.9 hPa ENE 2 mph /  3.2 km/h 8 mph /  12.9 km/h 92 % 0 in /  0.0 mm
06:42 32.7 °F /  0.4 °C 30.7 °F /  -0.7 °C 30.2 in /  1022.9 hPa NNE 2 mph /  3.2 km/h 10 mph /  16.1 km/h 92 % 0 in /  0.0 mm
06:47 32.5 °F /  0.3 °C 30.6 °F /  -0.8 °C 30.2 in /  1022.9 hPa North 2 mph /  3.2 km/h 10 mph /  16.1 km/h 92 % 0 in /  0.0 mm
06:52 32.5 °F /  0.3 °C 30.6 °F /  -0.8 °C 30.2 in /  1022.9 hPa NNW 1 mph /  1.6 km/h 10 mph /  16.1 km/h 92 % 0 in /  0.0 mm
06:57 32.5 °F /  0.3 °C 30.6 °F /  -0.8 °C 30.2 in /  1022.9 hPa North 2 mph /  3.2 km/h 8 mph /  12.9 km/h 92 % 0 in /  0.0 mm
07:02 32.5 °F /  0.3 °C 30.6 °F /  -0.8 °C 30.2 in /  1022.9 hPa NE 2 mph /  3.2 km/h 10 mph /  16.1 km/h 92 % 0 in /  0.0 mm
07:17 32.5 °F /  0.3 °C 30.6 °F /  -0.8 °C 30.2 in /  1022.9 hPa NNW 2 mph /  3.2 km/h 11 mph /  17.7 km/h 92 % 0 in /  0.0 mm
07:22 32.5 °F /  0.3 °C 30.6 °F /  -0.8 °C 30.2 in /  1022.9 hPa North 8 mph /  12.9 km/h 11 mph /  17.7 km/h 92 % 0 in /  0.0 mm
07:37 32.5 °F /  0.3 °C 30.2 °F /  -1.0 °C 30.2 in /  1023.2 hPa NNW 4 mph /  6.4 km/h 11 mph /  17.7 km/h 91 % 0 in /  0.0 mm
07:42 32.4 °F /  0.2 °C 30 °F /  -1.1 °C 30.2 in /  1023.2 hPa NW 3 mph /  4.8 km/h 11 mph /  17.7 km/h 91 % 0 in /  0.0 mm
07:47 32.4 °F /  0.2 °C 30 °F /  -1.1 °C 30.2 in /  1023.2 hPa NNE 5 mph /  8.0 km/h 12 mph /  19.3 km/h 91 % 0 in /  0.0 mm
07:57 32.4 °F /  0.2 °C 30 °F /  -1.1 °C 30.2 in /  1023.2 hPa NE 2 mph /  3.2 km/h 11 mph /  17.7 km/h 91 % 0 in /  0.0 mm
08:12 32.5 °F /  0.3 °C 30.2 °F /  -1.0 °C 30.2 in /  1023.2 hPa NNW 6 mph /  9.7 km/h 11 mph /  17.7 km/h 91 % 0 in /  0.0 mm
08:22 32.5 °F /  0.3 °C 30.2 °F /  -1.0 °C 30.2 in /  1023.2 hPa NNE 2 mph /  3.2 km/h 11 mph /  17.7 km/h 91 % 0 in /  0.0 mm
08:27 32.5 °F /  0.3 °C 30 °F /  -1.1 °C 30.2 in /  1023.2 hPa NNE 7 mph /  11.3 km/h 12 mph /  19.3 km/h 90 % 0 in /  0.0 mm
08:32 32.4 °F /  0.2 °C 29.8 °F /  -1.2 °C 30.2 in /  1023.2 hPa NW 4 mph /  6.4 km/h 12 mph /  19.3 km/h 90 % 0 in /  0.0 mm
08:37 32.4 °F /  0.2 °C 29.8 °F /  -1.2 °C 30.2 in /  1023.2 hPa ENE 1 mph /  1.6 km/h 12 mph /  19.3 km/h 90 % 0 in /  0.0 mm
08:42 32.2 °F /  0.1 °C 29.7 °F /  -1.3 °C 30.2 in /  1023.2 hPa NNW 6 mph /  9.7 km/h 11 mph /  17.7 km/h 90 % 0 in /  0.0 mm
08:47 32.2 °F /  0.1 °C 29.8 °F /  -1.2 °C 30.2 in /  1023.6 hPa WNW 2 mph /  3.2 km/h 11 mph /  17.7 km/h 91 % 0 in /  0.0 mm
08:57 32.2 °F /  0.1 °C 29.8 °F /  -1.2 °C 30.2 in /  1023.6 hPa NNE 6 mph /  9.7 km/h 9 mph /  14.5 km/h 91 % 0 in /  0.0 mm
09:02 32.4 °F /  0.2 °C 29.8 °F /  -1.2 °C 30.2 in /  1023.2 hPa NNE 4 mph /  6.4 km/h 12 mph /  19.3 km/h 90 % 0 in /  0.0 mm
09:17 32.5 °F /  0.3 °C 29.7 °F /  -1.3 °C 30.2 in /  1023.6 hPa NNE 9 mph /  14.5 km/h 13 mph /  20.9 km/h 89 % 0 in /  0.0 mm
09:22 32.5 °F /  0.3 °C 29.7 °F /  -1.3 °C 30.2 in /  1023.6 hPa NNE 8 mph /  12.9 km/h 16 mph /  25.7 km/h 89 % 0 in /  0.0 mm
09:42 32.9 °F /  0.5 °C 29.7 °F /  -1.3 °C 30.2 in /  1023.6 hPa NNE 7 mph /  11.3 km/h 16 mph /  25.7 km/h 88 % 0 in /  0.0 mm
09:47 33.1 °F /  0.6 °C 29.8 °F /  -1.2 °C 30.2 in /  1023.6 hPa NW 6 mph /  9.7 km/h 16 mph /  25.7 km/h 88 % 0 in /  0.0 mm
09:52 33.1 °F /  0.6 °C 29.8 °F /  -1.2 °C 30.2 in /  1023.6 hPa WNW 3 mph /  4.8 km/h 19 mph /  30.6 km/h 88 % 0 in /  0.0 mm
09:57 32.9 °F /  0.5 °C 29.7 °F /  -1.3 °C 30.2 in /  1023.6 hPa NNW 10 mph /  16.1 km/h 19 mph /  30.6 km/h 88 % 0 in /  0.0 mm
10:02 32.9 °F /  0.5 °C 29.7 °F /  -1.3 °C 30.2 in /  1023.9 hPa NW 10 mph /  16.1 km/h 19 mph /  30.6 km/h 88 % 0 in /  0.0 mm
10:07 33.1 °F /  0.6 °C 29.8 °F /  -1.2 °C 30.2 in /  1023.9 hPa NW 7 mph /  11.3 km/h 18 mph /  29.0 km/h 88 % 0 in /  0.0 mm
10:12 33.1 °F /  0.6 °C 30.2 °F /  -1.0 °C 30.3 in /  1024.3 hPa NE 5 mph /  8.0 km/h 18 mph /  29.0 km/h 89 % 0 in /  0.0 mm
10:22 32.9 °F /  0.5 °C 29.7 °F /  -1.3 °C 30.3 in /  1024.3 hPa NNW 11 mph /  17.7 km/h 19 mph /  30.6 km/h 88 % 0 in /  0.0 mm
10:37 32.7 °F /  0.4 °C 29.5 °F /  -1.4 °C 30.3 in /  1024.3 hPa North 8 mph /  12.9 km/h 20 mph /  32.2 km/h 88 % 0 in /  0.0 mm
10:42 32.7 °F /  0.4 °C 29.5 °F /  -1.4 °C 30.3 in /  1024.6 hPa NNE 4 mph /  6.4 km/h 16 mph /  25.7 km/h 88 % 0 in /  0.0 mm
10:57 32.7 °F /  0.4 °C 29.5 °F /  -1.4 °C 30.3 in /  1024.6 hPa North 6 mph /  9.7 km/h 17 mph /  27.4 km/h 88 % 0 in /  0.0 mm
11:02 32.7 °F /  0.4 °C 29.5 °F /  -1.4 °C 30.3 in /  1024.6 hPa North 6 mph /  9.7 km/h 19 mph /  30.6 km/h 88 % 0 in /  0.0 mm
11:12 33.1 °F /  0.6 °C 29.8 °F /  -1.2 °C 30.3 in /  1024.6 hPa NE 10 mph /  16.1 km/h 16 mph /  25.7 km/h 88 % 0 in /  0.0 mm
11:22 33.1 °F /  0.6 °C 29.7 °F /  -1.3 °C 30.3 in /  1024.6 hPa NNE 12 mph /  19.3 km/h 19 mph /  30.6 km/h 87 % 0 in /  0.0 mm
11:27 32.9 °F /  0.5 °C 29.5 °F /  -1.4 °C 30.3 in /  1024.6 hPa NE 22 mph /  35.4 km/h 22 mph /  35.4 km/h 87 % 0 in /  0.0 mm
11:37 33.1 °F /  0.6 °C 29.7 °F /  -1.3 °C 30.3 in /  1024.6 hPa NE 16 mph /  25.7 km/h 22 mph /  35.4 km/h 87 % 0 in /  0.0 mm
11:52 33.6 °F /  0.9 °C 30.2 °F /  -1.0 °C 30.3 in /  1024.3 hPa NE 7 mph /  11.3 km/h 20 mph /  32.2 km/h 87 % 0 in /  0.0 mm
11:57 33.6 °F /  0.9 °C 30.2 °F /  -1.0 °C 30.3 in /  1024.3 hPa NNW 6 mph /  9.7 km/h 15 mph /  24.1 km/h 87 % 0 in /  0.0 mm
12:02 33.6 °F /  0.9 °C 30.2 °F /  -1.0 °C 30.3 in /  1024.3 hPa NE 6 mph /  9.7 km/h 17 mph /  27.4 km/h 87 % 0 in /  0.0 mm
12:22 33.8 °F /  1.0 °C 29.8 °F /  -1.2 °C 30.3 in /  1024.3 hPa North 11 mph /  17.7 km/h 14 mph /  22.5 km/h 85 % 0 in /  0.0 mm
12:27 34 °F /  1.1 °C 30.2 °F /  -1.0 °C 30.3 in /  1024.3 hPa NNW 7 mph /  11.3 km/h 17 mph /  27.4 km/h 86 % 0.01 in /  0.3 mm
12:42 34.7 °F /  1.5 °C 30.7 °F /  -0.7 °C 30.2 in /  1023.9 hPa NNW 7 mph /  11.3 km/h 18 mph /  29.0 km/h 85 % 0.01 in /  0.3 mm
12:47 34.3 °F /  1.3 °C 30 °F /  -1.1 °C 30.2 in /  1023.9 hPa North 16 mph /  25.7 km/h 19 mph /  30.6 km/h 84 % 0.01 in /  0.3 mm
12:52 34.3 °F /  1.3 °C 30 °F /  -1.1 °C 30.2 in /  1023.9 hPa North 9 mph /  14.5 km/h 19 mph /  30.6 km/h 84 % 0.01 in /  0.3 mm
13:02 34.7 °F /  1.5 °C 30.7 °F /  -0.7 °C 30.2 in /  1023.9 hPa NNW 4 mph /  6.4 km/h 19 mph /  30.6 km/h 85 % 0.01 in /  0.3 mm
13:07 34.9 °F /  1.6 °C 30.6 °F /  -0.8 °C 30.2 in /  1023.9 hPa NE 13 mph /  20.9 km/h 19 mph /  30.6 km/h 84 % 0.01 in /  0.3 mm
13:12 34.9 °F /  1.6 °C 30.6 °F /  -0.8 °C 30.2 in /  1023.9 hPa NNE 10 mph /  16.1 km/h 19 mph /  30.6 km/h 84 % 0.01 in /  0.3 mm
13:22 35.2 °F /  1.8 °C 30.9 °F /  -0.6 °C 30.2 in /  1023.9 hPa NNE 7 mph /  11.3 km/h 20 mph /  32.2 km/h 84 % 0 in /  0.0 mm
13:37 35.2 °F /  1.8 °C 30.6 °F /  -0.8 °C 30.2 in /  1023.9 hPa NNE 8 mph /  12.9 km/h 23 mph /  37.0 km/h 83 % 0 in /  0.0 mm
13:52 35.2 °F /  1.8 °C 30.9 °F /  -0.6 °C 30.3 in /  1024.3 hPa NNW 5 mph /  8.0 km/h 19 mph /  30.6 km/h 84 % 0 in /  0.0 mm
14:17 35.4 °F /  1.9 °C 30.7 °F /  -0.7 °C 30.2 in /  1023.9 hPa North 11 mph /  17.7 km/h 19 mph /  30.6 km/h 83 % 0 in /  0.0 mm
14:22 35.2 °F /  1.8 °C 30.6 °F /  -0.8 °C 30.2 in /  1023.9 hPa North 11 mph /  17.7 km/h 19 mph /  30.6 km/h 83 % 0 in /  0.0 mm
14:27 35.2 °F /  1.8 °C 30.6 °F /  -0.8 °C 30.2 in /  1023.9 hPa NNW 8 mph /  12.9 km/h 19 mph /  30.6 km/h 83 % 0 in /  0.0 mm
14:37 35.2 °F /  1.8 °C 30.6 °F /  -0.8 °C 30.3 in /  1024.3 hPa NW 5 mph /  8.0 km/h 22 mph /  35.4 km/h 83 % 0 in /  0.0 mm
14:52 35.6 °F /  2.0 °C 30.9 °F /  -0.6 °C 30.3 in /  1024.3 hPa NNW 9 mph /  14.5 km/h 19 mph /  30.6 km/h 83 % 0 in /  0.0 mm
14:57 35.4 °F /  1.9 °C 30.7 °F /  -0.7 °C 30.3 in /  1024.3 hPa NNW 10 mph /  16.1 km/h 18 mph /  29.0 km/h 83 % 0 in /  0.0 mm
15:02 35.2 °F /  1.8 °C 30.6 °F /  -0.8 °C 30.3 in /  1024.3 hPa NNW 7 mph /  11.3 km/h 20 mph /  32.2 km/h 83 % 0 in /  0.0 mm
15:12 34.9 °F /  1.6 °C 30.2 °F /  -1.0 °C 30.3 in /  1024.3 hPa North 15 mph /  24.1 km/h 22 mph /  35.4 km/h 83 % 0 in /  0.0 mm
15:17 35.1 °F /  1.7 °C 30.4 °F /  -0.9 °C 30.3 in /  1024.3 hPa NNE 5 mph /  8.0 km/h 22 mph /  35.4 km/h 83 % 0 in /  0.0 mm
15:22 35.1 °F /  1.7 °C 30.7 °F /  -0.7 °C 30.3 in /  1024.3 hPa NNW 12 mph /  19.3 km/h 22 mph /  35.4 km/h 84 % 0 in /  0.0 mm
15:27 34.9 °F /  1.6 °C 30.6 °F /  -0.8 °C 30.3 in /  1024.6 hPa North 16 mph /  25.7 km/h 20 mph /  32.2 km/h 84 % 0 in /  0.0 mm
15:32 34.5 °F /  1.4 °C 30.2 °F /  -1.0 °C 30.3 in /  1024.6 hPa NNW 10 mph /  16.1 km/h 20 mph /  32.2 km/h 84 % 0 in /  0.0 mm
15:37 34.5 °F /  1.4 °C 30.6 °F /  -0.8 °C 30.3 in /  1024.6 hPa North 9 mph /  14.5 km/h 20 mph /  32.2 km/h 85 % 0 in /  0.0 mm
15:42 34.5 °F /  1.4 °C 30.6 °F /  -0.8 °C 30.3 in /  1024.6 hPa NNW 11 mph /  17.7 km/h 19 mph /  30.6 km/h 85 % 0 in /  0.0 mm
15:47 34.3 °F /  1.3 °C 30 °F /  -1.1 °C 30.3 in /  1024.6 hPa NW 5 mph /  8.0 km/h 19 mph /  30.6 km/h 84 % 0 in /  0.0 mm
15:57 34.3 °F /  1.3 °C 30 °F /  -1.1 °C 30.3 in /  1024.6 hPa North 8 mph /  12.9 km/h 18 mph /  29.0 km/h 84 % 0 in /  0.0 mm
16:32 33.8 °F /  1.0 °C 29.8 °F /  -1.2 °C 30.3 in /  1024.9 hPa North 12 mph /  19.3 km/h 17 mph /  27.4 km/h 85 % 0 in /  0.0 mm
16:37 33.6 °F /  0.9 °C 29.7 °F /  -1.3 °C 30.3 in /  1024.9 hPa NNE 5 mph /  8.0 km/h 17 mph /  27.4 km/h 85 % 0 in /  0.0 mm
16:42 33.4 °F /  0.8 °C 29.5 °F /  -1.4 °C 30.3 in /  1024.9 hPa NW 5 mph /  8.0 km/h 19 mph /  30.6 km/h 85 % 0 in /  0.0 mm
16:47 33.3 °F /  0.7 °C 29.5 °F /  -1.4 °C 30.3 in /  1025.3 hPa NNE 2 mph /  3.2 km/h 19 mph /  30.6 km/h 86 % 0 in /  0.0 mm
16:52 32.9 °F /  0.5 °C 29.1 °F /  -1.6 °C 30.3 in /  1025.3 hPa North 8 mph /  12.9 km/h 15 mph /  24.1 km/h 86 % 0 in /  0.0 mm
17:12 32.4 °F /  0.2 °C 29.1 °F /  -1.6 °C 30.3 in /  1024.9 hPa NNW 3 mph /  4.8 km/h 11 mph /  17.7 km/h 88 % 0 in /  0.0 mm
17:17 32.2 °F /  0.1 °C 28.9 °F /  -1.7 °C 30.3 in /  1025.3 hPa North 5 mph /  8.0 km/h 11 mph /  17.7 km/h 88 % 0 in /  0.0 mm
17:27 32.2 °F /  0.1 °C 28.9 °F /  -1.7 °C 30.3 in /  1025.3 hPa NNW 9 mph /  14.5 km/h 10 mph /  16.1 km/h 88 % 0 in /  0.0 mm
17:42 32 °F /  0.0 °C 29.1 °F /  -1.6 °C 30.3 in /  1025.3 hPa NNW 3 mph /  4.8 km/h 10 mph /  16.1 km/h 89 % 0 in /  0.0 mm
17:47 32 °F /  0.0 °C 29.1 °F /  -1.6 °C 30.3 in /  1025.3 hPa NNW 2 mph /  3.2 km/h 11 mph /  17.7 km/h 89 % 0 in /  0.0 mm
17:52 31.8 °F /  -0.1 °C 28.9 °F /  -1.7 °C 30.3 in /  1025.3 hPa NNW 4 mph /  6.4 km/h 11 mph /  17.7 km/h 89 % 0 in /  0.0 mm
18:02 31.8 °F /  -0.1 °C 29.3 °F /  -1.5 °C 30.3 in /  1025.3 hPa NW 4 mph /  6.4 km/h 12 mph /  19.3 km/h 90 % 0 in /  0.0 mm
18:07 31.8 °F /  -0.1 °C 28.9 °F /  -1.7 °C 30.3 in /  1025.3 hPa NW 5 mph /  8.0 km/h 12 mph /  19.3 km/h 89 % 0 in /  0.0 mm
18:12 31.8 °F /  -0.1 °C 28.9 °F /  -1.7 °C 30.3 in /  1025.3 hPa NNE 4 mph /  6.4 km/h 11 mph /  17.7 km/h 89 % 0 in /  0.0 mm
18:17 31.6 °F /  -0.2 °C 28.8 °F /  -1.8 °C 30.3 in /  1025.6 hPa NNW 2 mph /  3.2 km/h 10 mph /  16.1 km/h 89 % 0 in /  0.0 mm
18:22 31.6 °F /  -0.2 °C 29.1 °F /  -1.6 °C 30.3 in /  1025.6 hPa NNW 3 mph /  4.8 km/h 9 mph /  14.5 km/h 90 % 0 in /  0.0 mm
18:42 31.3 °F /  -0.4 °C 28.8 °F /  -1.8 °C 30.3 in /  1026.0 hPa NW 6 mph /  9.7 km/h 10 mph /  16.1 km/h 90 % 0 in /  0.0 mm
18:52 31.3 °F /  -0.4 °C 28.8 °F /  -1.8 °C 30.3 in /  1026.0 hPa North 7 mph /  11.3 km/h 11 mph /  17.7 km/h 90 % 0 in /  0.0 mm
18:57 31.3 °F /  -0.4 °C 28.8 °F /  -1.8 °C 30.3 in /  1026.0 hPa North 6 mph /  9.7 km/h 11 mph /  17.7 km/h 90 % 0 in /  0.0 mm
19:02 31.1 °F /  -0.5 °C 28.8 °F /  -1.8 °C 30.3 in /  1026.3 hPa NNW 4 mph /  6.4 km/h 12 mph /  19.3 km/h 91 % 0 in /  0.0 mm
19:07 30.9 °F /  -0.6 °C 28.6 °F /  -1.9 °C 30.3 in /  1026.3 hPa North 5 mph /  8.0 km/h 12 mph /  19.3 km/h 91 % 0 in /  0.0 mm
19:12 30.9 °F /  -0.6 °C 28.6 °F /  -1.9 °C 30.3 in /  1026.3 hPa NNW 5 mph /  8.0 km/h 13 mph /  20.9 km/h 91 % 0 in /  0.0 mm
19:17 30.9 °F /  -0.6 °C 28.6 °F /  -1.9 °C 30.3 in /  1026.6 hPa North 5 mph /  8.0 km/h 13 mph /  20.9 km/h 91 % 0 in /  0.0 mm
19:22 30.9 °F /  -0.6 °C 28.6 °F /  -1.9 °C 30.3 in /  1026.6 hPa NNW 7 mph /  11.3 km/h 12 mph /  19.3 km/h 91 % 0 in /  0.0 mm
19:32 30.9 °F /  -0.6 °C 28.6 °F /  -1.9 °C 30.3 in /  1026.6 hPa NW 5 mph /  8.0 km/h 14 mph /  22.5 km/h 91 % 0 in /  0.0 mm
19:37 30.7 °F /  -0.7 °C 28.4 °F /  -2.0 °C 30.3 in /  1026.6 hPa North 7 mph /  11.3 km/h 14 mph /  22.5 km/h 91 % 0 in /  0.0 mm
19:42 30.7 °F /  -0.7 °C 28.4 °F /  -2.0 °C 30.3 in /  1026.6 hPa NE 10 mph /  16.1 km/h 14 mph /  22.5 km/h 91 % 0 in /  0.0 mm
19:52 30.7 °F /  -0.7 °C 28.4 °F /  -2.0 °C 30.3 in /  1027.0 hPa NNW 6 mph /  9.7 km/h 16 mph /  25.7 km/h 91 % 0 in /  0.0 mm
19:57 30.7 °F /  -0.7 °C 28.4 °F /  -2.0 °C 30.3 in /  1027.0 hPa NNW 5 mph /  8.0 km/h 16 mph /  25.7 km/h 91 % 0 in /  0.0 mm
20:02 30.7 °F /  -0.7 °C 28.4 °F /  -2.0 °C 30.3 in /  1027.0 hPa NNW 5 mph /  8.0 km/h 16 mph /  25.7 km/h 91 % 0 in /  0.0 mm
20:12 30.7 °F /  -0.7 °C 28.4 °F /  -2.0 °C 30.3 in /  1027.0 hPa NNE 5 mph /  8.0 km/h 13 mph /  20.9 km/h 91 % 0 in /  0.0 mm
20:17 30.7 °F /  -0.7 °C 28.4 °F /  -2.0 °C 30.3 in /  1027.0 hPa NNE 4 mph /  6.4 km/h 16 mph /  25.7 km/h 91 % 0 in /  0.0 mm
20:22 30.7 °F /  -0.7 °C 28.4 °F /  -2.0 °C 30.3 in /  1027.3 hPa NNE 4 mph /  6.4 km/h 16 mph /  25.7 km/h 91 % 0 in /  0.0 mm
20:37 30.7 °F /  -0.7 °C 28.8 °F /  -1.8 °C 30.3 in /  1027.3 hPa NE 5 mph /  8.0 km/h 12 mph /  19.3 km/h 92 % 0 in /  0.0 mm
20:42 30.7 °F /  -0.7 °C 28.8 °F /  -1.8 °C 30.3 in /  1027.3 hPa NE 12 mph /  19.3 km/h 13 mph /  20.9 km/h 92 % 0 in /  0.0 mm
20:47 30.7 °F /  -0.7 °C 28.8 °F /  -1.8 °C 30.3 in /  1027.3 hPa North 10 mph /  16.1 km/h 16 mph /  25.7 km/h 92 % 0 in /  0.0 mm
20:52 30.7 °F /  -0.7 °C 28.8 °F /  -1.8 °C 30.3 in /  1027.3 hPa NNE 7 mph /  11.3 km/h 17 mph /  27.4 km/h 92 % 0 in /  0.0 mm
21:07 30.9 °F /  -0.6 °C 28.9 °F /  -1.7 °C 30.3 in /  1027.3 hPa NNE 3 mph /  4.8 km/h 17 mph /  27.4 km/h 92 % 0 in /  0.0 mm
21:12 30.9 °F /  -0.6 °C 28.9 °F /  -1.7 °C 30.3 in /  1027.3 hPa West 5 mph /  8.0 km/h 15 mph /  24.1 km/h 92 % 0 in /  0.0 mm
21:17 30.9 °F /  -0.6 °C 28.9 °F /  -1.7 °C 30.4 in /  1027.7 hPa North 5 mph /  8.0 km/h 15 mph /  24.1 km/h 92 % 0 in /  0.0 mm
21:27 30.9 °F /  -0.6 °C 28.9 °F /  -1.7 °C 30.4 in /  1027.7 hPa North 6 mph /  9.7 km/h 15 mph /  24.1 km/h 92 % 0 in /  0.0 mm
21:42 30.9 °F /  -0.6 °C 28.9 °F /  -1.7 °C 30.3 in /  1027.3 hPa NNE 7 mph /  11.3 km/h 14 mph /  22.5 km/h 92 % 0 in /  0.0 mm
21:57 30.9 °F /  -0.6 °C 28.9 °F /  -1.7 °C 30.4 in /  1027.7 hPa North 3 mph /  4.8 km/h 13 mph /  20.9 km/h 92 % 0 in /  0.0 mm
22:02 30.9 °F /  -0.6 °C 28.9 °F /  -1.7 °C 30.4 in /  1027.7 hPa NE 2 mph /  3.2 km/h 12 mph /  19.3 km/h 92 % 0 in /  0.0 mm
22:12 30.9 °F /  -0.6 °C 28.9 °F /  -1.7 °C 30.4 in /  1027.7 hPa NNW 4 mph /  6.4 km/h 11 mph /  17.7 km/h 92 % 0 in /  0.0 mm
22:17 30.9 °F /  -0.6 °C 28.6 °F /  -1.9 °C 30.4 in /  1027.7 hPa North 2 mph /  3.2 km/h 11 mph /  17.7 km/h 91 % 0 in /  0.0 mm
22:22 30.9 °F /  -0.6 °C 28.9 °F /  -1.7 °C 30.4 in /  1027.7 hPa NE 2 mph /  3.2 km/h 11 mph /  17.7 km/h 92 % 0 in /  0.0 mm
22:27 30.9 °F /  -0.6 °C 28.9 °F /  -1.7 °C 30.4 in /  1027.7 hPa NNW 4 mph /  6.4 km/h 10 mph /  16.1 km/h 92 % 0 in /  0.0 mm
22:32 30.9 °F /  -0.6 °C 28.9 °F /  -1.7 °C 30.4 in /  1027.7 hPa NNW 6 mph /  9.7 km/h 15 mph /  24.1 km/h 92 % 0 in /  0.0 mm
22:37 30.9 °F /  -0.6 °C 28.9 °F /  -1.7 °C 30.4 in /  1028.0 hPa NNW 4 mph /  6.4 km/h 15 mph /  24.1 km/h 92 % 0 in /  0.0 mm
22:42 30.9 °F /  -0.6 °C 28.9 °F /  -1.7 °C 30.4 in /  1028.0 hPa NNW 5 mph /  8.0 km/h 15 mph /  24.1 km/h 92 % 0 in /  0.0 mm
22:52 30.7 °F /  -0.7 °C 28.8 °F /  -1.8 °C 30.4 in /  1028.0 hPa NE 2 mph /  3.2 km/h 11 mph /  17.7 km/h 92 % 0 in /  0.0 mm
22:57 30.7 °F /  -0.7 °C 28.8 °F /  -1.8 °C 30.4 in /  1028.0 hPa NNW 5 mph /  8.0 km/h 11 mph /  17.7 km/h 92 % 0 in /  0.0 mm
23:12 30.7 °F /  -0.7 °C 28.8 °F /  -1.8 °C 30.4 in /  1028.0 hPa North 5 mph /  8.0 km/h 12 mph /  19.3 km/h 92 % 0 in /  0.0 mm
23:17 30.7 °F /  -0.7 °C 28.8 °F /  -1.8 °C 30.4 in /  1028.0 hPa NNW 3 mph /  4.8 km/h 12 mph /  19.3 km/h 92 % 0 in /  0.0 mm
23:22 30.7 °F /  -0.7 °C 28.8 °F /  -1.8 °C 30.4 in /  1028.0 hPa NNW 5 mph /  8.0 km/h 10 mph /  16.1 km/h 92 % 0 in /  0.0 mm
23:27 30.6 °F /  -0.8 °C 28.6 °F /  -1.9 °C 30.4 in /  1028.0 hPa NNW 4 mph /  6.4 km/h 8 mph /  12.9 km/h 92 % 0 in /  0.0 mm
23:42 30.6 °F /  -0.8 °C 28.6 °F /  -1.9 °C 30.4 in /  1028.0 hPa NNE 6 mph /  9.7 km/h 11 mph /  17.7 km/h 92 % 0 in /  0.0 mm
23:47 30.4 °F /  -0.9 °C 28.4 °F /  -2.0 °C 30.4 in /  1028.0 hPa NNW 6 mph /  9.7 km/h 11 mph /  17.7 km/h 92 % 0 in /  0.0 mm
23:57 30.4 °F /  -0.9 °C 28.4 °F /  -2.0 °C 30.4 in /  1028.0 hPa NNW 5 mph /  8.0 km/h 11 mph /  17.7 km/h 92 % 0 in /  0.0 mm
Meteo18
Compliments of Weather Underground - 4 mb

Script developed by  Jim McMurry - jmcmurry@mwt.net Adapted for the template by  Wim van der Kuil - Leuven-Template.eu

You find our weather info also at:

European Weather Network

Weather Underground

Equipment we use:

Weather-station
Davis Vue

Weather-program
Meteohub

Weather-server
Raspberry PI 2 B+

Provider
1 and 1

Davis Vue

Meteohub

Raspberry PI 2 B+

1 and 1